Time;durP1;ratioP1;P1;durP2;ratioP2;P2;SDS_P1;SDS_P2;PMS_P1;PMS_P2;Temp;Humidity;BMP_temperature;BMP_pressure;BME280_temperature;BME280_humidity;BME280_pressure;Samples;Min_cycle;Max_cycle;Signal;HPM_P1;HPM_P2
2022/01/09 00:01:52;;;;;;;12.73;7.90;;;-3272.30;81.80;;;;;;6321618;28;20193;-63
2022/01/09 00:04:53;;;;;;;15.00;8.17;;;-3272.20;82.10;;;;;;6301826;28;20652;-63
2022/01/09 00:07:54;;;;;;;13.90;8.30;;;-3272.20;82.20;;;;;;6322263;28;20235;-63
2022/01/09 00:10:55;;;;;;;14.83;7.50;;;-3272.20;82.20;;;;;;6334687;28;20193;-62
2022/01/09 00:13:56;;;;;;;11.77;7.23;;;-3272.20;82.10;;;;;;6326041;28;20193;-63
2022/01/09 00:16:59;;;;;;;15.37;7.90;;;-3272.30;81.90;;;;;;6309799;28;20197;-63
2022/01/09 00:20:00;;;;;;;12.23;6.97;;;-3272.20;81.70;;;;;;6293998;28;20690;-62
2022/01/09 00:23:01;;;;;;;13.10;8.30;;;-3272.20;81.70;;;;;;6317897;28;20636;-62
2022/01/09 00:26:02;;;;;;;15.80;8.40;;;-3272.20;81.60;;;;;;6334752;28;20172;-61
2022/01/09 00:29:06;;;;;;;15.03;7.60;;;-3272.20;81.30;;;;;;6334699;28;20200;-61
2022/01/09 00:32:07;;;;;;;12.37;7.47;;;-3272.30;81.30;;;;;;6335376;28;20190;-62
2022/01/09 00:35:09;;;;;;;11.73;7.03;;;-3272.20;81.50;;;;;;6333050;28;20634;-62
2022/01/09 00:38:10;;;;;;;11.63;7.00;;;-3272.30;81.70;;;;;;6311031;28;20195;-61
2022/01/09 00:41:11;;;;;;;13.50;7.67;;;-3272.30;81.70;;;;;;6330260;28;20623;-62
2022/01/09 00:44:12;;;;;;;14.90;7.60;;;-3272.50;82.00;;;;;;6324978;28;20246;-62
2022/01/09 00:47:12;;;;;;;12.17;6.77;;;-3272.60;82.30;;;;;;6334505;28;20180;-61
2022/01/09 00:50:15;;;;;;;15.67;7.23;;;-3272.60;82.30;;;;;;6283624;28;20197;-61
2022/01/09 00:53:16;;;;;;;10.60;7.00;;;-3272.70;82.50;;;;;;6335142;28;20190;-62
2022/01/09 00:56:16;;;;;;;13.83;7.30;;;-3272.80;82.60;;;;;;6292488;28;20611;-61
2022/01/09 00:59:17;;;;;;;15.43;7.27;;;-3272.90;82.70;;;;;;6309877;28;20196;-62
2022/01/09 01:02:18;;;;;;;11.10;6.63;;;-3272.90;82.40;;;;;;6299139;28;20190;-61
2022/01/09 01:05:19;;;;;;;12.37;6.83;;;-3272.90;82.40;;;;;;6325363;28;20251;-62
2022/01/09 01:08:20;;;;;;;12.43;6.60;;;-3273.00;82.40;;;;;;6309108;28;20181;-61
2022/01/09 01:11:21;;;;;;;14.37;6.90;;;-3273.00;82.30;;;;;;6328079;28;20711;-61
2022/01/09 01:14:23;;;;;;;15.03;7.80;;;-3273.10;81.90;;;;;;6333452;28;20210;-63
2022/01/09 01:17:24;;;;;;;12.70;7.63;;;-3273.10;81.80;;;;;;6350806;28;20221;-63
2022/01/09 01:20:25;;;;;;;11.10;7.77;;;-3273.10;81.30;;;;;;6288740;28;20675;-63
2022/01/09 01:23:26;;;;;;;11.17;6.77;;;-3273.10;80.80;;;;;;6308163;28;20227;-62
2022/01/09 01:26:27;;;;;;;15.47;6.27;;;-3273.10;80.70;;;;;;6298084;28;20197;-61
2022/01/09 01:29:27;;;;;;;10.43;6.13;;;-3273.20;80.40;;;;;;6308447;28;20191;-61
2022/01/09 01:32:28;;;;;;;8.20;5.70;;;-3273.10;80.60;;;;;;6307856;28;20189;-62
2022/01/09 01:35:29;;;;;;;8.03;5.50;;;-3273.10;80.70;;;;;;6307654;28;20200;-61
2022/01/09 01:38:30;;;;;;;8.43;6.40;;;-3273.20;80.70;;;;;;6291298;28;20260;-61
2022/01/09 01:41:31;;;;;;;11.23;7.07;;;-3273.10;80.80;;;;;;6325117;28;20480;-61
2022/01/09 01:44:43;;;;;;;14.23;7.03;;;-3273.20;81.00;;;;;;6324556;28;20319;-61
2022/01/09 01:47:44;;;;;;;8.80;5.53;;;-3273.20;81.20;;;;;;6324088;28;20184;-62
2022/01/09 01:50:46;;;;;;;9.87;6.10;;;-3273.30;81.00;;;;;;6308073;28;20181;-62
2022/01/09 01:53:48;;;;;;;9.73;5.93;;;-3273.30;81.20;;;;;;6332692;28;20223;-62
2022/01/09 01:56:49;;;;;;;15.70;9.20;;;-3273.30;81.30;;;;;;6346883;27;20208;-62
2022/01/09 01:59:50;;;;;;;15.33;8.70;;;-3273.30;81.60;;;;;;6307589;28;20189;-62
2022/01/09 02:02:51;;;;;;;14.17;8.37;;;-3273.40;81.10;;;;;;6332748;28;20252;-63
2022/01/09 02:05:52;;;;;;;15.80;6.77;;;-3273.40;81.30;;;;;;6307646;28;20179;-62
2022/01/09 02:08:53;;;;;;;12.07;6.53;;;-3273.30;81.20;;;;;;6318295;28;20211;-63
2022/01/09 02:11:53;;;;;;;10.43;5.80;;;-3273.20;81.60;;;;;;6307339;28;20204;-62
2022/01/09 02:14:54;;;;;;;9.00;5.63;;;-3273.20;81.50;;;;;;6307153;28;20195;-62
2022/01/09 02:17:55;;;;;;;7.57;5.20;;;-3273.30;81.40;;;;;;6307769;28;20201;-62
2022/01/09 02:20:56;;;;;;;9.30;5.70;;;-3273.20;81.60;;;;;;6345291;28;20236;-62
2022/01/09 02:23:57;;;;;;;7.53;4.73;;;-3273.30;81.70;;;;;;6309483;28;20212;-63
2022/01/09 02:27:04;;;;;;;7.23;4.47;;;-3273.30;81.80;;;;;;6307116;28;20214;-61
2022/01/09 02:30:05;;;;;;;6.67;4.70;;;-3273.30;81.70;;;;;;6320661;28;20262;-61
2022/01/09 02:33:09;;;;;;;8.40;4.83;;;-3273.40;81.70;;;;;;6315344;28;20177;-62
2022/01/09 02:36:10;;;;;;;12.13;5.00;;;-3273.40;81.60;;;;;;6314083;28;20185;-62
2022/01/09 02:39:11;;;;;;;9.53;5.50;;;-3273.50;81.30;;;;;;6325352;28;20635;-62
2022/01/09 02:42:28;;;;;;;6.63;5.60;;;-3273.50;81.40;;;;;;6331752;28;20183;-62
2022/01/09 02:45:29;;;;;;;9.53;5.67;;;-3273.40;81.20;;;;;;6278309;28;20217;-62
2022/01/09 02:48:34;;;;;;;10.43;5.63;;;-3273.30;80.90;;;;;;6300176;28;20187;-62
2022/01/09 02:51:36;;;;;;;9.10;6.67;;;-3273.30;81.20;;;;;;6298593;28;20603;-62
2022/01/09 02:57:59;;;;;;;7.47;5.13;;;-3273.20;81.50;;;;;;6291445;28;20294;-62
2022/01/09 03:01:01;;;;;;;10.83;5.53;;;-3273.20;81.30;;;;;;6323453;28;20194;-62
2022/01/09 03:04:01;;;;;;;6.70;5.30;;;-3273.10;81.50;;;;;;6324509;28;20219;-62
2022/01/09 03:07:02;;;;;;;9.57;5.53;;;-3273.00;81.70;;;;;;6331870;28;20603;-62
2022/01/09 03:10:04;;;;;;;8.47;6.23;;;-3273.00;81.90;;;;;;6279654;28;20207;-62
2022/01/09 03:13:07;;;;;;;10.13;6.87;;;-3273.00;81.90;;;;;;6304618;28;20193;-62
2022/01/09 03:16:08;;;;;;;8.77;5.97;;;-3273.00;81.90;;;;;;6330909;28;20192;-62
2022/01/09 03:19:08;;;;;;;9.93;5.87;;;-3273.10;81.60;;;;;;6330366;28;20194;-62
2022/01/09 03:22:09;;;;;;;7.23;5.20;;;-3273.00;81.70;;;;;;6312713;28;20201;-62
2022/01/09 03:25:11;;;;;;;9.13;4.63;;;-3273.10;81.40;;;;;;6305373;28;20217;-63
2022/01/09 03:28:11;;;;;;;10.67;6.47;;;-3273.10;81.40;;;;;;6347597;28;20257;-63
2022/01/09 03:31:12;;;;;;;13.00;6.97;;;-3273.10;81.50;;;;;;6328957;28;20190;-63
2022/01/09 03:34:13;;;;;;;14.00;6.93;;;-3273.10;81.60;;;;;;6348303;28;20193;-63
2022/01/09 03:37:14;;;;;;;9.93;6.20;;;-3273.00;81.50;;;;;;6328275;28;20198;-63
2022/01/09 03:40:19;;;;;;;12.77;6.63;;;-3273.00;81.20;;;;;;6322464;28;20279;-62
2022/01/09 03:43:19;;;;;;;13.87;6.87;;;-3273.00;81.30;;;;;;6288938;28;20289;-62
2022/01/09 03:46:20;;;;;;;12.10;7.47;;;-3273.00;81.20;;;;;;6322134;28;20198;-62
2022/01/09 03:49:22;;;;;;;9.60;6.83;;;-3273.00;81.40;;;;;;6305508;28;20205;-62
2022/01/09 03:52:27;;;;;;;9.27;6.07;;;-3273.00;81.50;;;;;;6339535;28;20173;-62
2022/01/09 03:55:28;;;;;;;11.90;5.87;;;-3273.00;81.60;;;;;;6312709;28;20640;-62
2022/01/09 03:58:29;;;;;;;9.50;6.03;;;-3273.10;81.50;;;;;;6289321;28;20201;-61
2022/01/09 04:01:30;;;;;;;5.87;4.47;;;-3273.10;81.70;;;;;;6323195;28;20211;-61
2022/01/09 04:04:30;;;;;;;5.90;4.30;;;-3273.20;81.50;;;;;;6347945;28;20254;-61
2022/01/09 04:07:31;;;;;;;4.90;3.87;;;-3273.20;81.30;;;;;;6288312;28;20287;-62
2022/01/09 04:10:39;;;;;;;7.40;3.90;;;-3273.20;81.50;;;;;;6307856;28;20186;-62
2022/01/09 04:13:40;;;;;;;6.20;3.80;;;-3273.20;81.50;;;;;;6311139;28;20335;-62
2022/01/09 04:16:42;;;;;;;6.43;3.67;;;-3273.20;81.40;;;;;;6310243;28;20606;-62
2022/01/09 04:19:43;;;;;;;7.33;4.53;;;-3273.20;81.50;;;;;;6327970;27;20232;-62
2022/01/09 04:22:44;;;;;;;5.67;4.07;;;-3273.30;81.10;;;;;;6309774;28;20189;-62
2022/01/09 04:25:46;;;;;;;9.43;4.90;;;-3273.30;81.10;;;;;;6319014;28;20219;-62
2022/01/09 04:28:47;;;;;;;7.07;4.17;;;-3273.30;81.00;;;;;;6293081;28;20189;-62
2022/01/09 04:31:48;;;;;;;4.93;3.73;;;-3273.20;81.00;;;;;;6309561;28;20207;-62
2022/01/09 04:34:50;;;;;;;7.97;4.33;;;-3273.30;81.20;;;;;;6314642;28;20816;-62
2022/01/09 04:37:52;;;;;;;7.30;4.30;;;-3273.20;81.20;;;;;;6294739;28;20194;-62
2022/01/09 04:40:53;;;;;;;4.83;3.80;;;-3273.20;81.30;;;;;;6351608;28;20657;-62
2022/01/09 04:43:54;;;;;;;6.90;4.27;;;-3273.20;81.10;;;;;;6331030;28;20695;-62
2022/01/09 04:47:00;;;;;;;6.17;3.40;;;-3273.30;81.00;;;;;;6293028;28;20188;-62
2022/01/09 04:50:02;;;;;;;6.80;3.87;;;-3273.30;81.00;;;;;;6311396;28;20718;-62
2022/01/09 04:53:06;;;;;;;6.17;4.13;;;-3273.20;81.00;;;;;;6292437;28;20639;-62
2022/01/09 04:56:07;;;;;;;9.37;4.30;;;-3273.20;81.10;;;;;;6314785;28;20629;-62
2022/01/09 04:59:07;;;;;;;6.20;3.47;;;-3273.20;81.00;;;;;;6300364;28;20622;-62
2022/01/09 05:02:08;;;;;;;7.93;4.50;;;-3273.20;81.10;;;;;;6325489;28;20334;-62
2022/01/09 05:05:10;;;;;;;9.10;4.97;;;-3273.20;81.10;;;;;;6303853;28;20746;-63
2022/01/09 05:08:11;;;;;;;6.03;3.90;;;-3273.20;81.30;;;;;;6308761;28;20243;-62
2022/01/09 05:11:11;;;;;;;8.00;4.17;;;-3273.20;81.10;;;;;;6347009;28;20177;-62
2022/01/09 05:14:12;;;;;;;6.47;4.17;;;-3273.20;81.20;;;;;;6320601;28;20200;-63
2022/01/09 05:17:13;;;;;;;5.37;3.70;;;-3273.20;81.30;;;;;;6319981;28;20284;-62
2022/01/09 05:20:14;;;;;;;6.40;3.50;;;-3273.20;81.40;;;;;;6308733;28;20239;-62
2022/01/09 05:23:15;;;;;;;6.60;4.80;;;-3273.20;81.50;;;;;;6275014;28;20190;-62
2022/01/09 05:26:16;;;;;;;9.00;5.20;;;-3273.30;81.20;;;;;;6325634;28;20223;-62
2022/01/09 05:29:17;;;;;;;4.80;3.80;;;-3273.20;81.30;;;;;;6319239;28;20259;-62
2022/01/09 05:32:19;;;;;;;6.90;3.87;;;-3273.20;81.20;;;;;;6324602;28;20695;-63
2022/01/09 05:35:20;;;;;;;4.90;3.97;;;-3273.30;81.20;;;;;;6342442;28;20253;-63
2022/01/09 05:38:21;;;;;;;8.73;4.10;;;-3273.20;81.30;;;;;;6332106;28;20201;-62
2022/01/09 05:41:22;;;;;;;7.73;4.47;;;-3273.30;81.30;;;;;;6324432;28;20224;-62
2022/01/09 05:44:23;;;;;;;5.80;3.60;;;-3273.40;80.70;;;;;;6285149;28;20217;-62
2022/01/09 05:47:24;;;;;;;5.87;3.67;;;-3273.40;80.70;;;;;;6304358;28;20283;-62
2022/01/09 05:50:26;;;;;;;5.23;3.57;;;-3273.40;81.10;;;;;;6321002;28;20191;-63
2022/01/09 05:53:27;;;;;;;5.33;3.37;;;-3273.30;81.30;;;;;;6318502;28;20200;-62
2022/01/09 05:56:28;;;;;;;9.27;3.73;;;-3273.40;81.30;;;;;;6331271;28;20196;-63
2022/01/09 05:59:29;;;;;;;4.20;3.53;;;-3273.50;81.20;;;;;;6320146;28;20200;-63
2022/01/09 06:02:30;;;;;;;3.67;3.00;;;-3273.60;80.80;;;;;;6294816;28;20223;-62
2022/01/09 06:05:31;;;;;;;7.03;3.83;;;-3273.60;80.70;;;;;;6332567;28;20223;-62
2022/01/09 06:08:32;;;;;;;4.77;2.80;;;-3273.60;80.80;;;;;;6288429;28;20626;-63
2022/01/09 06:11:33;;;;;;;7.43;3.70;;;-3273.60;80.80;;;;;;6314461;28;20190;-62
2022/01/09 06:14:34;;;;;;;8.03;3.77;;;-3273.70;80.80;;;;;;6315112;28;20248;-62
2022/01/09 06:17:42;;;;;;;3.73;3.20;;;-3273.70;80.90;;;;;;6323727;28;20291;-62
2022/01/09 06:20:43;;;;;;;6.03;3.53;;;-3273.70;80.80;;;;;;6298678;28;20234;-62
2022/01/09 06:23:44;;;;;;;3.90;2.77;;;-3273.80;80.30;;;;;;6330786;28;20221;-62
2022/01/09 06:26:45;;;;;;;4.97;3.43;;;-3273.80;80.40;;;;;;6318569;28;20262;-62
2022/01/09 06:29:47;;;;;;;14.77;3.83;;;-3273.90;80.50;;;;;;6285381;28;20185;-63
2022/01/09 06:32:47;;;;;;;6.53;3.90;;;-3274.00;80.70;;;;;;6317506;28;20199;-62
2022/01/09 06:35:48;;;;;;;6.10;3.90;;;-3274.00;80.80;;;;;;6322273;28;20195;-61
2022/01/09 06:38:49;;;;;;;7.23;4.10;;;-3274.10;80.80;;;;;;6314985;28;20198;-60
2022/01/09 06:41:50;;;;;;;7.10;3.93;;;-3274.20;80.80;;;;;;6292990;28;20673;-59
2022/01/09 06:44:51;;;;;;;6.93;3.73;;;-3274.30;80.70;;;;;;6323661;28;20289;-58
2022/01/09 06:47:57;;;;;;;4.30;3.17;;;-3274.40;80.30;;;;;;6323007;28;20708;-59
2022/01/09 06:50:58;;;;;;;5.63;3.50;;;-3274.50;80.20;;;;;;6295700;28;20196;-59
2022/01/09 06:53:59;;;;;;;8.13;3.40;;;-3274.60;79.90;;;;;;6327052;28;20220;-59
2022/01/09 06:57:00;;;;;;;7.17;3.40;;;-3274.70;79.70;;;;;;6306566;28;20204;-60
2022/01/09 07:00:02;;;;;;;7.10;3.60;;;-3274.70;79.30;;;;;;6292476;28;20236;-59
2022/01/09 07:03:03;;;;;;;6.00;3.67;;;-3274.80;79.10;;;;;;6336020;28;20268;-60
2022/01/09 07:06:03;;;;;;;6.90;3.80;;;-3274.80;79.10;;;;;;6314178;28;20206;-60
2022/01/09 07:09:04;;;;;;;9.17;4.03;;;-3274.80;78.70;;;;;;6289944;28;20188;-60
2022/01/09 07:12:07;;;;;;;5.83;4.00;;;-3274.80;78.70;;;;;;6327968;28;20233;-60
2022/01/09 07:15:08;;;;;;;8.93;4.87;;;-3274.90;78.80;;;;;;6295690;28;20202;-59
2022/01/09 07:18:09;;;;;;;7.80;4.37;;;-3274.90;79.00;;;;;;6328333;28;20185;-59
2022/01/09 07:21:10;;;;;;;6.63;4.17;;;-3274.90;78.90;;;;;;6310883;28;20236;-59
2022/01/09 07:24:10;;;;;;;7.67;4.13;;;-3274.90;78.40;;;;;;6320268;28;20301;-60
2022/01/09 07:27:11;;;;;;;8.20;4.83;;;-3275.00;78.80;;;;;;6297002;28;20192;-60
2022/01/09 07:30:12;;;;;;;5.23;3.77;;;-3275.00;78.70;;;;;;6319841;28;20224;-60
2022/01/09 07:33:14;;;;;;;7.23;4.37;;;-3274.90;78.70;;;;;;6332892;28;20188;-60
2022/01/09 07:36:16;;;;;;;6.20;4.03;;;-3275.00;78.50;;;;;;6334083;28;20263;-60
2022/01/09 07:39:17;;;;;;;8.13;4.33;;;-3275.00;78.80;;;;;;6303047;28;20659;-60
2022/01/09 07:42:18;;;;;;;6.67;3.97;;;-3275.10;79.10;;;;;;6335856;28;20185;-60
2022/01/09 07:45:27;;;;;;;4.77;3.80;;;-3275.10;79.20;;;;;;6290957;28;20220;-56
2022/01/09 07:48:28;;;;;;;10.30;4.60;;;-3275.10;79.50;;;;;;6325285;28;20186;-60
2022/01/09 07:51:28;;;;;;;7.30;4.60;;;-3275.20;79.10;;;;;;6304128;28;20235;-60
2022/01/09 07:54:29;;;;;;;8.67;4.67;;;-3275.30;78.20;;;;;;6319003;28;20194;-61
2022/01/09 07:57:30;;;;;;;6.43;4.63;;;-3275.30;78.00;;;;;;6331893;28;20195;-59
2022/01/09 08:00:31;;;;;;;7.93;4.73;;;-3275.40;77.90;;;;;;6290471;28;20204;-59
2022/01/09 08:03:34;;;;;;;8.70;5.63;;;-3275.50;77.50;;;;;;6334954;28;20226;-59
2022/01/09 08:06:34;;;;;;;8.70;4.70;;;-3275.50;77.70;;;;;;6327271;28;20185;-59
2022/01/09 08:09:35;;;;;;;9.83;4.87;;;-3275.60;77.40;;;;;;6334732;28;20200;-59
2022/01/09 08:12:37;;;;;;;6.37;4.93;;;-3275.60;76.70;;;;;;6329561;28;20245;-58
2022/01/09 08:15:38;;;;;;;8.73;5.30;;;-3275.70;76.40;;;;;;6311762;28;20215;-58
2022/01/09 08:18:39;;;;;;;7.40;5.00;;;-3275.80;76.70;;;;;;6312180;28;20254;-58
2022/01/09 08:21:40;;;;;;;8.50;5.20;;;-3275.90;76.90;;;;;;6276056;28;20241;-56
2022/01/09 08:24:40;;;;;;;8.10;5.53;;;-3276.00;76.70;;;;;;6259829;28;20223;-59
2022/01/09 08:27:43;;;;;;;8.07;5.17;;;-3276.00;75.10;;;;;;6291356;28;20185;-59
2022/01/09 08:30:44;;;;;;;6.83;5.07;;;-3276.00;75.30;;;;;;6284846;28;20192;-59
2022/01/09 08:33:45;;;;;;;10.73;4.87;;;-3276.10;74.70;;;;;;6276757;28;20193;-59
2022/01/09 08:36:46;;;;;;;6.17;4.43;;;-3276.20;73.80;;;;;;6255968;28;20204;-59
2022/01/09 08:39:47;;;;;;;5.67;4.03;;;-3276.20;73.00;;;;;;6275422;28;20193;-59
2022/01/09 08:42:50;;;;;;;9.60;4.83;;;-3276.30;73.20;;;;;;6293178;28;20220;-59
2022/01/09 08:45:50;;;;;;;9.23;5.23;;;-3276.40;73.70;;;;;;6275843;28;20217;-59
2022/01/09 08:48:51;;;;;;;7.93;4.90;;;-3276.50;73.80;;;;;;6263001;28;20203;-59
2022/01/09 08:51:54;;;;;;;8.27;4.83;;;-3276.60;73.90;;;;;;6259687;28;20200;-60
2022/01/09 08:54:55;;;;;;;7.57;5.30;;;-3276.60;73.60;;;;;;6275743;28;20194;-60
2022/01/09 08:57:59;;;;;;;11.03;6.07;;;-3276.70;73.50;;;;;;6242017;28;20196;-59
2022/01/09 09:01:00;;;;;;;11.37;5.63;;;-3276.70;73.60;;;;;;6244336;28;20208;-60
2022/01/09 09:04:01;;;;;;;7.63;5.13;;;0.00;72.90;;;;;;6281767;28;20213;-60
2022/01/09 09:07:02;;;;;;;7.13;4.67;;;0.00;72.00;;;;;;6264423;28;20244;-59
2022/01/09 09:10:04;;;;;;;9.77;5.00;;;0.00;71.40;;;;;;6246962;28;20251;-59
2022/01/09 09:13:05;;;;;;;8.90;5.90;;;0.10;71.40;;;;;;6296595;28;20246;-60
2022/01/09 09:16:08;;;;;;;7.47;5.20;;;0.10;71.10;;;;;;6269500;28;20204;-63
2022/01/09 09:19:09;;;;;;;6.97;4.93;;;0.20;71.20;;;;;;6275759;28;20189;-61
2022/01/09 09:22:10;;;;;;;8.90;4.87;;;0.10;71.20;;;;;;6272617;28;20241;-61
2022/01/09 09:25:11;;;;;;;6.97;5.00;;;0.30;70.50;;;;;;6284157;28;20222;-61
2022/01/09 09:28:12;;;;;;;13.80;5.00;;;0.50;70.30;;;;;;6253484;28;20217;-60
2022/01/09 09:31:13;;;;;;;6.63;4.43;;;0.60;69.10;;;;;;6281312;28;20268;-60
2022/01/09 09:34:14;;;;;;;9.60;5.43;;;0.70;68.30;;;;;;6262942;28;20498;-61
2022/01/09 09:37:15;;;;;;;7.30;4.97;;;0.80;68.10;;;;;;6274698;28;20176;-61
2022/01/09 09:40:16;;;;;;;9.17;6.30;;;1.00;68.00;;;;;;6269115;28;20266;-61
2022/01/09 09:43:17;;;;;;;6.33;5.37;;;1.10;67.90;;;;;;6291737;28;20229;-61
2022/01/09 09:46:21;;;;;;;6.60;4.40;;;1.10;66.40;;;;;;6253109;28;20189;-61
2022/01/09 09:49:22;;;;;;;8.10;5.20;;;1.20;65.40;;;;;;6291524;28;20178;-59
2022/01/09 09:52:24;;;;;;;5.87;4.23;;;1.30;66.10;;;;;;6291038;28;20189;-61
2022/01/09 09:55:25;;;;;;;13.23;5.23;;;1.60;66.60;;;;;;6266566;28;20231;-60
2022/01/09 09:58:28;;;;;;;9.57;5.10;;;1.70;65.70;;;;;;6263618;28;20196;-61
2022/01/09 10:01:32;;;;;;;7.97;4.70;;;1.80;65.40;;;;;;6242372;28;20296;-62
2022/01/09 10:04:33;;;;;;;9.20;5.53;;;2.10;64.50;;;;;;6273008;28;20225;-61
2022/01/09 10:07:34;;;;;;;10.27;5.27;;;2.10;63.50;;;;;;6266616;28;20201;-61
2022/01/09 10:10:36;;;;;;;11.57;5.83;;;2.20;62.50;;;;;;6257366;28;20191;-61
2022/01/09 10:13:37;;;;;;;6.70;4.60;;;2.40;62.10;;;;;;6255726;28;20652;-61
2022/01/09 10:16:38;;;;;;;6.97;4.97;;;2.60;61.60;;;;;;6249093;28;20205;-61
2022/01/09 10:19:57;;;;;;;6.37;4.33;;;2.70;60.60;;;;;;6272828;28;20292;-64
2022/01/09 10:22:58;;;;;;;6.57;4.53;;;2.80;60.70;;;;;;6310263;28;20205;-64
2022/01/09 10:26:11;;;;;;;8.30;4.77;;;3.00;59.50;;;;;;6326145;28;20216;-64
2022/01/09 10:29:12;;;;;;;6.73;4.40;;;2.90;59.70;;;;;;6306366;28;20245;-64
2022/01/09 10:32:16;;;;;;;7.53;4.83;;;3.00;58.80;;;;;;6306552;28;20196;-65
2022/01/09 10:35:19;;;;;;;9.20;4.63;;;2.90;58.70;;;;;;6310427;28;20192;-65
2022/01/09 10:38:23;;;;;;;6.63;4.63;;;2.90;60.00;;;;;;6348740;28;20188;-65
2022/01/09 10:41:24;;;;;;;6.03;4.57;;;3.00;59.70;;;;;;6325266;28;20198;-65
2022/01/09 10:44:31;;;;;;;7.87;4.73;;;3.20;58.90;;;;;;6290124;28;20243;-65
2022/01/09 10:47:37;;;;;;;7.13;4.37;;;3.30;59.50;;;;;;6355275;27;20250;-65
2022/01/09 10:50:41;;;;;;;8.83;4.90;;;3.50;57.50;;;;;;6314560;28;20202;-65
2022/01/09 10:53:43;;;;;;;5.77;4.00;;;3.80;57.90;;;;;;6316642;28;20280;-65
2022/01/09 10:56:44;;;;;;;5.23;3.97;;;3.90;55.10;;;;;;6340189;28;20187;-65
2022/01/09 10:59:46;;;;;;;7.87;4.10;;;3.80;55.50;;;;;;6309313;28;20207;-66
2022/01/09 11:02:46;;;;;;;9.33;4.50;;;3.80;55.70;;;;;;6306376;28;20274;-65
2022/01/09 11:05:48;;;;;;;8.57;5.90;;;3.80;55.10;;;;;;6314210;28;20255;-65
2022/01/09 11:08:52;;;;;;;11.47;7.00;;;3.80;56.00;;;;;;6314400;28;20191;-65
2022/01/09 11:11:55;;;;;;;11.00;6.70;;;3.80;56.30;;;;;;6344032;28;20203;-65
2022/01/09 11:14:57;;;;;;;11.93;8.67;;;3.80;57.50;;;;;;6339007;28;20184;-64
2022/01/09 11:18:01;;;;;;;10.70;7.50;;;3.60;57.50;;;;;;6337836;28;20196;-65
2022/01/09 11:21:02;;;;;;;14.47;8.17;;;3.70;58.00;;;;;;6296737;28;20239;-65
2022/01/09 11:24:11;;;;;;;10.50;7.57;;;3.60;57.70;;;;;;6326742;28;20550;-65
2022/01/09 11:27:22;;;;;;;11.33;7.23;;;3.60;58.90;;;;;;6340817;27;20201;-63
2022/01/09 11:30:37;;;;;;;15.97;8.53;;;3.70;57.90;;;;;;6303214;28;20647;-63
2022/01/09 11:34:03;;;;;;;9.40;7.63;;;3.70;57.20;;;;;;6320796;28;20228;-63
2022/01/09 11:37:34;;;;;;;14.47;8.87;;;3.80;57.40;;;;;;6307471;28;20199;-64
2022/01/09 11:40:38;;;;;;;17.23;8.80;;;3.60;58.30;;;;;;6324493;28;20197;-65
2022/01/09 11:43:52;;;;;;;13.03;8.40;;;3.70;57.70;;;;;;6302500;28;20268;-65
2022/01/09 11:47:00;;;;;;;15.57;9.20;;;3.70;59.00;;;;;;6302614;28;20190;-64
2022/01/09 11:50:01;;;;;;;12.17;8.10;;;3.40;58.50;;;;;;6302155;28;20216;-63
2022/01/09 11:53:02;;;;;;;15.07;8.97;;;3.60;59.60;;;;;;6302374;28;20204;-65
2022/01/09 11:56:03;;;;;;;18.70;9.10;;;3.60;59.00;;;;;;6286132;28;20236;-65
2022/01/09 11:59:23;;;;;;;12.70;7.97;;;3.50;58.90;;;;;;6340414;28;20687;-61
2022/01/09 12:02:29;;;;;;;16.20;9.17;;;3.50;58.70;;;;;;6327774;28;20828;-63
2022/01/09 12:05:58;;;;;;;11.33;8.07;;;3.40;59.70;;;;;;6344258;28;20208;-62
2022/01/09 12:09:02;;;;;;;11.70;8.13;;;3.50;60.40;;;;;;6301822;28;20188;-63
2022/01/09 12:12:03;;;;;;;13.20;8.07;;;3.50;59.70;;;;;;6301897;28;20185;-63
2022/01/09 12:15:08;;;;;;;11.43;8.30;;;3.50;59.90;;;;;;6320934;28;20203;-62
2022/01/09 12:18:45;;;;;;;17.27;9.87;;;3.80;58.40;;;;;;6338211;28;20309;-61
2022/01/09 12:21:49;;;;;;;16.00;10.03;;;3.80;59.20;;;;;;6303396;28;20236;-61
2022/01/09 12:24:49;;;;;;;11.27;9.00;;;4.10;60.00;;;;;;6306100;28;20216;-62
2022/01/09 12:27:54;;;;;;;13.07;8.63;;;4.30;58.50;;;;;;6294867;28;20450;-62
2022/01/09 12:31:00;;;;;;;12.93;9.07;;;4.40;58.30;;;;;;6326917;28;20196;-62
2022/01/09 12:34:00;;;;;;;14.50;9.23;;;4.70;57.60;;;;;;6274332;28;20224;-62
2022/01/09 12:37:01;;;;;;;14.00;8.93;;;4.90;56.80;;;;;;6326382;28;20272;-62
2022/01/09 12:40:06;;;;;;;20.20;9.03;;;4.70;55.60;;;;;;6318209;28;20206;-61
2022/01/09 12:43:07;;;;;;;18.60;10.00;;;4.90;56.10;;;;;;6294253;28;20200;-61
2022/01/09 12:46:21;;;;;;;13.50;8.83;;;5.00;55.60;;;;;;6314397;28;20227;-61
2022/01/09 12:49:24;;;;;;;12.23;8.53;;;4.80;55.80;;;;;;6305016;28;20188;-65
2022/01/09 12:52:25;;;;;;;12.93;8.87;;;4.60;56.80;;;;;;6284590;28;20204;-65
2022/01/09 12:55:25;;;;;;;14.87;8.57;;;4.40;57.00;;;;;;6320287;28;20245;-66
2022/01/09 12:58:32;;;;;;;13.97;8.57;;;4.40;56.80;;;;;;6336383;28;20241;-66
2022/01/09 13:01:37;;;;;;;13.40;8.73;;;4.30;57.40;;;;;;6331352;28;20205;-66
2022/01/09 13:04:39;;;;;;;10.50;7.97;;;4.30;57.10;;;;;;6342546;27;20216;-66
2022/01/09 13:07:39;;;;;;;15.60;10.40;;;4.20;57.60;;;;;;6303032;28;20201;-66
2022/01/09 13:10:40;;;;;;;17.20;12.20;;;4.20;58.00;;;;;;6300373;28;20185;-66
2022/01/09 13:13:43;;;;;;;14.50;10.07;;;4.00;57.60;;;;;;6311633;28;20200;-66
2022/01/09 13:16:44;;;;;;;12.33;9.13;;;4.10;58.30;;;;;;6325591;28;20189;-65
2022/01/09 13:19:46;;;;;;;12.57;9.10;;;4.70;57.90;;;;;;6347086;28;20245;-66
2022/01/09 13:22:47;;;;;;;13.60;8.97;;;4.80;56.90;;;;;;6298912;28;20222;-66
2022/01/09 13:25:51;;;;;;;14.57;10.37;;;4.60;57.00;;;;;;6333134;28;20222;-66
2022/01/09 13:28:53;;;;;;;16.00;8.53;;;4.40;57.40;;;;;;6308582;28;20212;-66
2022/01/09 13:31:58;;;;;;;13.13;8.00;;;4.20;58.00;;;;;;6314625;28;20192;-66
2022/01/09 13:34:59;;;;;;;9.60;7.80;;;4.00;58.20;;;;;;6301288;28;20189;-66
2022/01/09 13:38:00;;;;;;;13.40;8.53;;;4.00;58.20;;;;;;6297991;28;20191;-66
2022/01/09 13:41:01;;;;;;;14.57;8.40;;;3.90;59.20;;;;;;6337652;28;20202;-67
2022/01/09 13:44:02;;;;;;;11.53;8.43;;;3.80;59.50;;;;;;6307368;28;20302;-67
2022/01/09 13:47:10;;;;;;;13.70;8.70;;;3.80;60.80;;;;;;6284822;28;20196;-66
2022/01/09 13:50:13;;;;;;;11.27;8.50;;;3.70;59.80;;;;;;6330834;28;20192;-66
2022/01/09 13:53:14;;;;;;;10.60;7.67;;;3.50;60.10;;;;;;6316091;28;20191;-67
2022/01/09 13:56:18;;;;;;;8.47;7.23;;;3.40;61.20;;;;;;6290969;28;20282;-67
2022/01/09 13:59:18;;;;;;;11.40;7.70;;;3.40;61.10;;;;;;6329267;28;20202;-67
2022/01/09 14:02:22;;;;;;;10.77;7.57;;;3.50;61.40;;;;;;6296785;28;20206;-67
2022/01/09 14:05:24;;;;;;;11.30;7.73;;;3.40;61.30;;;;;;6331219;28;20253;-67
2022/01/09 14:08:36;;;;;;;12.17;7.80;;;3.50;61.30;;;;;;6290681;28;20188;-67
2022/01/09 14:11:37;;;;;;;12.10;8.23;;;3.50;61.20;;;;;;6295854;28;20275;-67
2022/01/09 14:14:40;;;;;;;10.97;8.03;;;3.80;60.20;;;;;;6309479;28;20188;-67
2022/01/09 14:17:52;;;;;;;13.03;9.33;;;3.80;60.60;;;;;;6296601;28;20224;-66
2022/01/09 14:21:10;;;;;;;14.37;9.03;;;3.90;59.90;;;;;;6321131;28;20262;-67
2022/01/09 14:24:11;;;;;;;11.17;8.30;;;3.80;60.00;;;;;;6326760;28;20205;-67
2022/01/09 14:27:23;;;;;;;13.20;8.23;;;3.80;59.70;;;;;;6306952;28;20199;-67
2022/01/09 14:30:32;;;;;;;14.17;8.10;;;4.00;59.20;;;;;;6323630;28;20183;-66
2022/01/09 14:33:33;;;;;;;10.50;7.83;;;4.00;59.30;;;;;;6316572;28;20185;-67
2022/01/09 14:36:35;;;;;;;10.80;7.73;;;4.10;58.60;;;;;;6315405;28;20243;-66
2022/01/09 14:39:36;;;;;;;12.07;8.63;;;3.70;59.60;;;;;;6319448;28;20282;-67
2022/01/09 14:42:36;;;;;;;10.90;7.03;;;3.70;59.70;;;;;;6322817;28;20203;-67
2022/01/09 14:45:37;;;;;;;12.70;7.83;;;3.60;60.20;;;;;;6326897;28;20234;-67
2022/01/09 14:48:39;;;;;;;12.70;8.40;;;3.50;61.00;;;;;;6332333;28;20192;-67
2022/01/09 14:51:40;;;;;;;10.10;7.77;;;3.40;60.80;;;;;;6315072;28;20187;-69
2022/01/09 14:54:41;;;;;;;12.00;7.67;;;3.30;61.10;;;;;;6304511;28;20203;-69
2022/01/09 14:57:42;;;;;;;8.30;6.43;;;3.30;61.40;;;;;;6322242;28;20291;-69
2022/01/09 15:00:43;;;;;;;14.17;8.73;;;3.20;61.60;;;;;;6316674;28;20207;-69
2022/01/09 15:03:44;;;;;;;10.23;8.70;;;3.10;62.10;;;;;;6287773;28;20217;-69
2022/01/09 15:06:45;;;;;;;13.13;7.80;;;3.10;62.40;;;;;;6328132;28;20183;-69
2022/01/09 15:09:46;;;;;;;11.40;8.40;;;2.90;63.30;;;;;;6321983;28;20209;-69
2022/01/09 15:12:47;;;;;;;12.13;8.13;;;2.90;62.80;;;;;;6319508;28;20184;-69
2022/01/09 15:15:48;;;;;;;12.43;7.37;;;2.70;63.60;;;;;;6321876;28;20211;-69
2022/01/09 15:18:49;;;;;;;14.27;7.77;;;2.60;64.40;;;;;;6339542;28;20223;-69
2022/01/09 15:21:50;;;;;;;10.07;7.17;;;2.50;65.00;;;;;;6277997;28;20314;-59
2022/01/09 15:24:51;;;;;;;12.93;8.57;;;2.40;65.20;;;;;;6318280;28;20218;-58
2022/01/09 15:27:52;;;;;;;13.60;7.13;;;2.40;65.80;;;;;;6313455;28;20264;-59
2022/01/09 15:30:53;;;;;;;10.50;7.77;;;2.30;65.80;;;;;;6331182;28;20228;-58